Terminal Aerodrome Forecast
Issued by NWS

Home | Current Version | Previous Version | Text Only | Print | Product List | Glossary On
Versions: 1 2 3 4 5 6 7 8 9 10 11 12 13 14 15 16 17
000
FTUS42 KTBW 041850 AAA
TAFPIE
TAF AMD
KPIE 041850Z 0419/0518 10007KT P6SM VCTS SCT035CB BKN250
      TEMPO 0419/0420 VRB15G25KT 4SM TSRA BKN025CB OVC070
     FM042100 32008KT P6SM VCTS SCT035CB BKN250
     FM050000 VRB05KT P6SM FEW035 BKN250
     FM050300 11003KT P6SM SCT050 BKN250
     FM051400 15007KT P6SM FEW030 SCT250=

USA.gov is the U.S. government's official web portal to all federal, state and local government web resources and services.